Time;durP1;ratioP1;P1;durP2;ratioP2;P2;SDS_P1;SDS_P2;PMS_P1;PMS_P2;Temp;Humidity;BMP_temperature;BMP_pressure;BME280_temperature;BME280_humidity;BME280_pressure;Samples;Min_cycle;Max_cycle;Signal;HPM_P1;HPM_P2
2021/03/24 00:02:19;;;;;;;22.05;12.73;;;;;;;;;;4996991;28;20022;-62
2021/03/24 00:04:44;;;;;;;23.25;13.23;;;;;;;;;;5014683;28;20037;-62
2021/03/24 00:07:10;;;;;;;19.85;12.20;;;;;;;;;;5014127;28;20014;-62
2021/03/24 00:09:36;;;;;;;21.63;13.85;;;;;;;;;;4996686;28;20029;-62
2021/03/24 00:12:03;;;;;;;22.05;13.23;;;;;;;;;;5014443;28;20022;-62
2021/03/24 00:14:29;;;;;;;19.77;13.23;;;;;;;;;;4996707;28;20034;-62
2021/03/24 00:16:55;;;;;;;21.35;12.27;;;;;;;;;;5013639;28;20037;-62
2021/03/24 00:19:20;;;;;;;22.23;13.68;;;;;;;;;;4996954;28;20037;-62
2021/03/24 00:21:46;;;;;;;23.08;13.52;;;;;;;;;;5014213;28;20045;-62
2021/03/24 00:24:12;;;;;;;18.98;11.80;;;;;;;;;;5013985;28;20026;-62
2021/03/24 00:26:37;;;;;;;21.27;12.95;;;;;;;;;;5013893;28;20017;-62
2021/03/24 00:29:03;;;;;;;21.70;12.80;;;;;;;;;;5013903;28;20041;-62
2021/03/24 00:31:29;;;;;;;21.50;13.45;;;;;;;;;;5014184;28;20416;-62
2021/03/24 00:33:54;;;;;;;20.33;13.30;;;;;;;;;;5013955;28;20038;-62
2021/03/24 00:36:20;;;;;;;23.48;13.50;;;;;;;;;;4996722;28;20033;-62
2021/03/24 00:38:45;;;;;;;20.77;12.75;;;;;;;;;;5014074;28;20030;-62
2021/03/24 00:41:11;;;;;;;20.80;13.10;;;;;;;;;;4996236;28;20056;-62
2021/03/24 00:43:36;;;;;;;19.05;12.38;;;;;;;;;;5014067;28;20068;-65
2021/03/24 00:46:02;;;;;;;20.10;13.05;;;;;;;;;;5013736;28;20025;-65
2021/03/24 00:48:29;;;;;;;22.15;12.88;;;;;;;;;;5013706;28;20022;-65
2021/03/24 00:51:01;;;;;;;20.27;12.95;;;;;;;;;;5013759;28;20417;-66
2021/03/24 00:53:34;;;;;;;22.75;13.25;;;;;;;;;;5013884;28;20451;-65
2021/03/24 00:56:09;;;;;;;21.23;12.82;;;;;;;;;;5013923;28;20084;-65
2021/03/24 00:58:42;;;;;;;18.38;12.90;;;;;;;;;;5013699;28;20030;-65
2021/03/24 01:01:17;;;;;;;22.88;12.98;;;;;;;;;;5013576;28;20040;-66
2021/03/24 01:03:42;;;;;;;24.25;13.82;;;;;;;;;;4996021;28;20125;-65
2021/03/24 01:06:08;;;;;;;22.75;13.48;;;;;;;;;;5013478;28;20030;-65
2021/03/24 01:08:34;;;;;;;23.02;13.48;;;;;;;;;;4997193;28;20072;-65
2021/03/24 01:11:00;;;;;;;19.67;12.93;;;;;;;;;;5019791;28;20020;-65
2021/03/24 01:13:26;;;;;;;21.42;13.23;;;;;;;;;;5020241;28;20081;-62
2021/03/24 01:15:52;;;;;;;22.10;13.52;;;;;;;;;;5020213;28;20172;-62
2021/03/24 01:18:19;;;;;;;22.77;14.13;;;;;;;;;;5019981;28;20037;-62
2021/03/24 01:20:45;;;;;;;21.45;13.38;;;;;;;;;;5019951;28;20113;-61
2021/03/24 01:23:11;;;;;;;24.63;14.27;;;;;;;;;;5019986;28;20187;-62
2021/03/24 01:25:37;;;;;;;23.65;14.05;;;;;;;;;;5019937;28;20025;-62
2021/03/24 01:28:04;;;;;;;21.17;13.48;;;;;;;;;;5020155;28;20502;-62
2021/03/24 01:30:30;;;;;;;25.83;13.57;;;;;;;;;;5020259;28;20069;-62
2021/03/24 01:32:56;;;;;;;20.88;12.68;;;;;;;;;;5002600;28;20030;-62
2021/03/24 01:35:23;;;;;;;21.75;13.88;;;;;;;;;;5019920;28;20028;-62
2021/03/24 01:37:49;;;;;;;20.95;13.00;;;;;;;;;;5002391;28;20439;-62
2021/03/24 01:40:26;;;;;;;21.83;14.20;;;;;;;;;;5019498;28;20053;-62
2021/03/24 01:42:56;;;;;;;23.27;13.88;;;;;;;;;;5020037;28;20092;-62
2021/03/24 01:45:22;;;;;;;19.90;12.38;;;;;;;;;;5002352;28;20429;-62
2021/03/24 01:47:47;;;;;;;22.35;13.50;;;;;;;;;;5002205;28;20037;-62
2021/03/24 01:50:20;;;;;;;22.00;13.32;;;;;;;;;;5019704;28;20034;-62
2021/03/24 01:52:45;;;;;;;22.20;13.38;;;;;;;;;;5019803;28;20466;-62
2021/03/24 01:55:13;;;;;;;20.08;12.15;;;;;;;;;;5001970;28;20049;-62
2021/03/24 01:57:39;;;;;;;21.92;14.05;;;;;;;;;;5020003;28;20021;-62
2021/03/24 02:00:11;;;;;;;22.50;12.75;;;;;;;;;;5019792;28;20105;-62
2021/03/24 02:02:43;;;;;;;20.13;12.30;;;;;;;;;;5019696;28;20034;-62
2021/03/24 02:05:09;;;;;;;19.67;12.23;;;;;;;;;;5001978;28;20433;-62
2021/03/24 02:07:40;;;;;;;21.45;13.07;;;;;;;;;;5001709;28;20108;-62
2021/03/24 02:10:14;;;;;;;20.08;12.25;;;;;;;;;;5002171;28;20081;-61
2021/03/24 02:12:49;;;;;;;16.63;11.30;;;;;;;;;;5019576;28;20033;-62
2021/03/24 02:15:14;;;;;;;19.23;11.70;;;;;;;;;;5019479;28;20038;-62
2021/03/24 02:17:42;;;;;;;20.90;12.80;;;;;;;;;;5018923;28;20053;-62
2021/03/24 02:20:19;;;;;;;20.50;12.82;;;;;;;;;;5017743;28;20026;-62
2021/03/24 02:22:49;;;;;;;15.40;10.02;;;;;;;;;;5016129;28;20050;-62
2021/03/24 02:25:17;;;;;;;16.70;11.23;;;;;;;;;;4998509;28;20038;-62
2021/03/24 02:27:47;;;;;;;19.27;12.30;;;;;;;;;;5016592;28;20113;-62
2021/03/24 02:30:17;;;;;;;18.75;12.60;;;;;;;;;;5016939;28;20366;-62
2021/03/24 02:33:03;;;;;;;18.80;11.70;;;;;;;;;;5016381;28;20018;-61
2021/03/24 02:35:30;;;;;;;18.15;12.07;;;;;;;;;;5015973;28;20367;-62
2021/03/24 02:37:57;;;;;;;20.75;12.07;;;;;;;;;;5016298;28;20440;-61
2021/03/24 02:40:23;;;;;;;15.82;10.77;;;;;;;;;;5016370;28;20026;-62
2021/03/24 02:42:49;;;;;;;17.33;12.05;;;;;;;;;;4998715;28;20055;-65
2021/03/24 02:45:18;;;;;;;17.85;12.48;;;;;;;;;;4998116;28;20048;-66
2021/03/24 02:47:44;;;;;;;18.65;11.70;;;;;;;;;;5015688;28;20019;-65
2021/03/24 02:50:11;;;;;;;20.90;12.85;;;;;;;;;;4998241;28;20033;-65
2021/03/24 02:52:36;;;;;;;20.27;12.48;;;;;;;;;;5016083;28;20026;-65
2021/03/24 02:55:03;;;;;;;21.00;12.63;;;;;;;;;;4998023;28;20022;-65
2021/03/24 02:57:28;;;;;;;20.13;12.63;;;;;;;;;;5015375;28;20025;-66
2021/03/24 02:59:54;;;;;;;18.70;12.40;;;;;;;;;;5015940;28;20034;-65
2021/03/24 03:02:21;;;;;;;19.40;12.45;;;;;;;;;;5015871;28;20369;-65
2021/03/24 03:04:49;;;;;;;19.25;12.23;;;;;;;;;;5015627;28;20070;-65
2021/03/24 03:07:17;;;;;;;19.45;12.82;;;;;;;;;;5015661;28;20054;-65
2021/03/24 03:09:50;;;;;;;20.50;13.38;;;;;;;;;;5015446;28;20429;-64
2021/03/24 03:12:21;;;;;;;18.60;12.75;;;;;;;;;;5015528;28;20066;-62
2021/03/24 03:14:57;;;;;;;17.77;12.82;;;;;;;;;;5015189;28;20473;-62
2021/03/24 03:17:33;;;;;;;20.17;12.15;;;;;;;;;;5015152;28;20042;-62
2021/03/24 03:20:07;;;;;;;18.73;12.40;;;;;;;;;;5015336;28;20029;-62
2021/03/24 03:22:35;;;;;;;18.50;12.43;;;;;;;;;;4997453;28;20533;-62
2021/03/24 03:25:05;;;;;;;20.30;12.65;;;;;;;;;;5014932;28;20050;-62
2021/03/24 03:27:30;;;;;;;17.63;11.40;;;;;;;;;;5014988;28;20089;-62
2021/03/24 03:29:59;;;;;;;18.13;11.45;;;;;;;;;;5014989;28;20022;-62
2021/03/24 03:32:25;;;;;;;17.92;11.55;;;;;;;;;;5015058;28;20026;-62
2021/03/24 03:34:56;;;;;;;19.50;12.27;;;;;;;;;;5014959;28;20046;-62
2021/03/24 03:37:25;;;;;;;16.92;11.82;;;;;;;;;;5015026;28;20042;-62
2021/03/24 03:39:51;;;;;;;21.30;12.02;;;;;;;;;;4997199;28;20022;-62
2021/03/24 03:42:17;;;;;;;19.45;12.48;;;;;;;;;;5014974;28;20038;-62
2021/03/24 03:44:43;;;;;;;17.73;12.35;;;;;;;;;;4997215;28;20064;-62
2021/03/24 03:47:11;;;;;;;16.38;11.70;;;;;;;;;;5014830;28;20061;-62
2021/03/24 03:49:37;;;;;;;17.77;11.70;;;;;;;;;;5014954;28;20018;-62
2021/03/24 03:52:14;;;;;;;17.02;12.50;;;;;;;;;;4996937;28;20382;-62
2021/03/24 03:54:43;;;;;;;18.80;12.45;;;;;;;;;;5014818;28;20501;-62
2021/03/24 03:57:15;;;;;;;21.98;12.60;;;;;;;;;;5014358;28;20030;-62
2021/03/24 03:59:44;;;;;;;18.00;11.45;;;;;;;;;;5014479;28;20030;-62
2021/03/24 04:02:11;;;;;;;20.77;12.40;;;;;;;;;;5014605;28;20106;-62
2021/03/24 04:04:47;;;;;;;20.63;12.25;;;;;;;;;;5014413;28;20053;-62
2021/03/24 04:07:20;;;;;;;19.33;12.70;;;;;;;;;;5014473;28;20040;-62
2021/03/24 04:09:47;;;;;;;18.73;12.43;;;;;;;;;;5014433;28;20026;-62
2021/03/24 04:12:13;;;;;;;16.48;12.35;;;;;;;;;;5014604;28;20036;-62
2021/03/24 04:14:40;;;;;;;19.20;12.90;;;;;;;;;;5014241;28;20041;-62
2021/03/24 04:17:07;;;;;;;19.60;12.23;;;;;;;;;;5013495;28;20061;-62
2021/03/24 04:19:36;;;;;;;21.45;12.80;;;;;;;;;;5014009;28;20034;-62
2021/03/24 04:22:02;;;;;;;16.20;11.40;;;;;;;;;;5014829;28;20104;-62
2021/03/24 04:24:29;;;;;;;16.90;11.57;;;;;;;;;;5014149;28;20045;-62
2021/03/24 04:26:56;;;;;;;17.40;10.88;;;;;;;;;;4996492;28;20029;-62
2021/03/24 04:29:48;;;;;;;22.00;12.57;;;;;;;;;;4996828;28;20129;-62
2021/03/24 04:32:14;;;;;;;18.58;11.95;;;;;;;;;;5012399;28;20030;-62
2021/03/24 04:34:40;;;;;;;16.80;10.95;;;;;;;;;;5014196;28;20018;-62
2021/03/24 04:37:15;;;;;;;17.52;11.88;;;;;;;;;;5013769;28;20049;-62
2021/03/24 04:39:45;;;;;;;18.85;11.85;;;;;;;;;;5013905;28;20052;-62
2021/03/24 04:42:19;;;;;;;22.40;12.40;;;;;;;;;;5013939;28;20033;-62
2021/03/24 04:44:46;;;;;;;17.80;11.38;;;;;;;;;;5013051;28;20065;-62
2021/03/24 04:47:17;;;;;;;17.25;12.05;;;;;;;;;;5013407;28;20014;-62
2021/03/24 04:49:46;;;;;;;18.10;10.45;;;;;;;;;;5013968;28;20044;-62
2021/03/24 04:52:12;;;;;;;17.70;11.73;;;;;;;;;;4996290;28;20477;-62
2021/03/24 04:54:38;;;;;;;19.90;11.98;;;;;;;;;;5013707;28;20029;-61
2021/03/24 04:57:08;;;;;;;18.55;10.95;;;;;;;;;;5013986;28;20022;-62
2021/03/24 04:59:36;;;;;;;16.80;10.02;;;;;;;;;;4994767;28;20049;-62
2021/03/24 05:02:12;;;;;;;29.90;16.70;;;;;;;;;;5002240;28;20022;-62
2021/03/24 05:04:39;;;;;;;29.00;16.33;;;;;;;;;;4989170;28;20826;-62
2021/03/24 05:07:09;;;;;;;19.13;11.70;;;;;;;;;;5006355;28;20153;-62
2021/03/24 05:09:35;;;;;;;18.92;12.07;;;;;;;;;;5005551;28;20554;-62
2021/03/24 05:12:14;;;;;;;20.42;11.77;;;;;;;;;;4988339;28;20048;-62
2021/03/24 05:15:02;;;;;;;20.35;13.02;;;;;;;;;;5005815;28;20144;-62
2021/03/24 05:17:30;;;;;;;19.30;12.38;;;;;;;;;;4999216;28;20052;-62
2021/03/24 05:20:06;;;;;;;21.58;13.32;;;;;;;;;;5004754;28;20030;-62
2021/03/24 05:22:33;;;;;;;20.98;13.02;;;;;;;;;;5006256;28;20034;-62
2021/03/24 05:25:07;;;;;;;17.77;12.20;;;;;;;;;;4988500;28;20358;-62
2021/03/24 05:27:43;;;;;;;19.35;13.18;;;;;;;;;;5007162;28;20037;-62
2021/03/24 05:30:30;;;;;;;21.27;12.85;;;;;;;;;;5006862;28;20034;-62
2021/03/24 05:33:01;;;;;;;23.83;13.23;;;;;;;;;;5005747;28;20053;-62
2021/03/24 05:35:42;;;;;;;19.42;12.93;;;;;;;;;;5005196;28;20034;-62
2021/03/24 05:38:07;;;;;;;;;;;;;;;;;;5005549;28;20079;-62
2021/03/24 05:40:53;;;;;;;24.35;13.45;;;;;;;;;;5004628;28;19909;-62
2021/03/24 05:43:24;;;;;;;25.73;16.83;;;;;;;;;;4993942;28;20050;-62
2021/03/24 05:46:06;;;;;;;23.13;15.13;;;;;;;;;;5004779;28;20056;-62
2021/03/24 05:48:45;;;;;;;24.30;14.80;;;;;;;;;;5005050;28;20088;-62
2021/03/24 05:51:27;;;;;;;19.95;13.77;;;;;;;;;;5004626;28;20030;-62
2021/03/24 05:53:58;;;;;;;23.90;14.43;;;;;;;;;;5004522;28;20030;-62
2021/03/24 05:56:39;;;;;;;26.88;15.60;;;;;;;;;;5008649;28;20044;-62
2021/03/24 05:59:28;;;;;;;23.38;14.98;;;;;;;;;;5011094;28;20084;-62
2021/03/24 06:01:55;;;;;;;20.52;12.95;;;;;;;;;;5010227;28;20038;-62
2021/03/24 06:04:44;;;;;;;23.63;14.70;;;;;;;;;;5011125;28;20053;-62
2021/03/24 06:07:34;;;;;;;21.30;13.25;;;;;;;;;;4987728;28;20128;-62
2021/03/24 06:09:59;;;;;;;22.13;13.13;;;;;;;;;;5008874;28;20041;-62
2021/03/24 06:12:25;;;;;;;21.60;13.05;;;;;;;;;;4997158;28;20104;-62
2021/03/24 06:15:06;;;;;;;25.63;14.55;;;;;;;;;;4998875;28;20557;-62
2021/03/24 06:17:51;;;;;;;23.67;13.18;;;;;;;;;;5016489;28;20085;-62
2021/03/24 06:20:35;;;;;;;22.70;13.80;;;;;;;;;;5017818;28;20025;-62
2021/03/24 06:23:13;;;;;;;24.73;14.98;;;;;;;;;;5016910;28;20034;-62
2021/03/24 06:25:41;;;;;;;24.27;13.27;;;;;;;;;;4998635;28;20033;-62
2021/03/24 06:28:26;;;;;;;27.35;14.77;;;;;;;;;;5004072;28;20021;-62
2021/03/24 06:31:15;;;;;;;25.10;14.80;;;;;;;;;;4993640;28;20030;-62
2021/03/24 06:34:01;;;;;;;24.45;13.90;;;;;;;;;;4969394;28;20042;-62
2021/03/24 06:36:40;;;;;;;26.17;15.75;;;;;;;;;;5002542;28;20041;-62
2021/03/24 06:39:24;;;;;;;24.27;13.45;;;;;;;;;;4989932;28;20470;-62
2021/03/24 06:42:09;;;;;;;18.13;12.43;;;;;;;;;;5009589;28;20039;-62
2021/03/24 06:44:47;;;;;;;25.83;14.77;;;;;;;;;;4995003;28;20030;-62
2021/03/24 06:47:19;;;;;;;25.65;14.27;;;;;;;;;;4996509;28;20026;-62
2021/03/24 06:50:16;;;;;;;23.80;14.05;;;;;;;;;;4992276;28;20030;-62
2021/03/24 06:52:57;;;;;;;19.90;13.23;;;;;;;;;;4996599;28;20109;-62
2021/03/24 06:55:41;;;;;;;22.98;13.77;;;;;;;;;;4996329;28;20030;-62
2021/03/24 06:58:28;;;;;;;22.92;13.20;;;;;;;;;;4997356;28;20525;-62
2021/03/24 07:00:57;;;;;;;20.17;12.73;;;;;;;;;;5015735;28;20536;-62
2021/03/24 07:03:31;;;;;;;25.98;14.52;;;;;;;;;;5015633;28;20026;-62
2021/03/24 07:05:56;;;;;;;24.80;13.77;;;;;;;;;;5015448;28;20450;-62
2021/03/24 07:08:40;;;;;;;19.55;12.02;;;;;;;;;;4997890;28;20033;-62
2021/03/24 07:11:25;;;;;;;17.27;11.27;;;;;;;;;;5008176;28;20501;-62
2021/03/24 07:14:13;;;;;;;19.90;11.57;;;;;;;;;;4995507;28;20113;-62
2021/03/24 07:17:02;;;;;;;21.15;12.65;;;;;;;;;;4998396;28;20506;-63
2021/03/24 07:19:30;;;;;;;24.33;13.88;;;;;;;;;;5005045;28;20557;-63
2021/03/24 07:22:07;;;;;;;21.20;12.98;;;;;;;;;;5030621;28;20034;-62
2021/03/24 07:24:40;;;;;;;21.73;12.27;;;;;;;;;;5014741;28;20048;-62
2021/03/24 07:27:16;;;;;;;20.75;12.55;;;;;;;;;;4994993;28;20030;-62
2021/03/24 07:29:54;;;;;;;19.08;12.20;;;;;;;;;;4995542;28;20026;-62
2021/03/24 07:32:27;;;;;;;24.42;14.27;;;;;;;;;;5008205;28;20029;-63
2021/03/24 07:35:10;;;;;;;23.00;13.77;;;;;;;;;;5015090;28;20034;-62
2021/03/24 07:38:00;;;;;;;24.15;13.13;;;;;;;;;;5013717;28;20026;-62
2021/03/24 07:40:41;;;;;;;20.88;14.10;;;;;;;;;;5014750;28;20029;-62
2021/03/24 07:43:12;;;;;;;26.92;16.38;;;;;;;;;;4997324;28;20065;-62
2021/03/24 07:45:37;;;;;;;20.88;13.45;;;;;;;;;;5029493;28;20022;-62
2021/03/24 07:48:19;;;;;;;20.02;12.32;;;;;;;;;;5029262;28;20037;-62
2021/03/24 07:50:54;;;;;;;26.00;15.43;;;;;;;;;;5014098;28;20061;-62
2021/03/24 07:53:35;;;;;;;21.65;13.85;;;;;;;;;;4996542;28;20128;-62
2021/03/24 07:56:06;;;;;;;13.02;8.88;;;;;;;;;;5014571;28;20028;-62
2021/03/24 07:58:40;;;;;;;14.57;8.68;;;;;;;;;;5014375;28;20512;-62
2021/03/24 08:01:24;;;;;;;15.20;10.50;;;;;;;;;;5014239;28;20057;-63
2021/03/24 08:04:00;;;;;;;17.52;10.05;;;;;;;;;;4996803;28;20034;-63
2021/03/24 08:06:26;;;;;;;18.17;10.77;;;;;;;;;;5014110;28;20057;-62
2021/03/24 08:09:10;;;;;;;17.20;11.35;;;;;;;;;;5014188;28;20010;-62
2021/03/24 08:11:36;;;;;;;14.40;9.75;;;;;;;;;;4996369;28;20393;-62
2021/03/24 08:14:04;;;;;;;19.40;12.43;;;;;;;;;;5014041;28;20036;-62
2021/03/24 08:16:42;;;;;;;44.00;21.45;;;;;;;;;;5011600;28;20029;-63
2021/03/24 08:19:23;;;;;;;949.00;586.70;;;;;;;;;;5013487;28;20033;-62
2021/03/24 08:22:01;;;;;;;837.22;494.92;;;;;;;;;;5013987;28;20060;-62
2021/03/24 08:24:56;;;;;;;243.70;123.25;;;;;;;;;;5013727;28;20022;-62
2021/03/24 08:27:21;;;;;;;109.50;58.25;;;;;;;;;;5000363;28;20049;-62
2021/03/24 08:30:05;;;;;;;26.95;15.45;;;;;;;;;;5013992;28;20018;-63
2021/03/24 08:32:57;;;;;;;761.38;464.67;;;;;;;;;;5013646;28;20033;-63
2021/03/24 08:35:32;;;;;;;251.90;159.48;;;;;;;;;;4990140;28;20057;-62
2021/03/24 08:38:05;;;;;;;902.22;607.00;;;;;;;;;;5013944;28;20524;-63
2021/03/24 08:40:37;;;;;;;1237.05;672.20;;;;;;;;;;5013859;28;20021;-62
2021/03/24 08:43:09;;;;;;;415.27;303.77;;;;;;;;;;4996221;28;20441;-62
2021/03/24 08:45:46;;;;;;;47.95;28.88;;;;;;;;;;5013516;28;20033;-62
2021/03/24 08:48:29;;;;;;;170.88;132.68;;;;;;;;;;5013640;28;20049;-62
2021/03/24 08:51:01;;;;;;;36.90;26.33;;;;;;;;;;5013547;28;20057;-62
2021/03/24 08:53:34;;;;;;;138.73;118.35;;;;;;;;;;5013726;28;20026;-62
2021/03/24 08:56:09;;;;;;;25.15;18.67;;;;;;;;;;5013652;28;20113;-62
2021/03/24 08:58:38;;;;;;;70.63;26.33;;;;;;;;;;5013735;28;20556;-62
2021/03/24 09:01:29;;;;;;;267.42;106.57;;;;;;;;;;5013724;28;20025;-62
2021/03/24 09:04:01;;;;;;;384.70;224.50;;;;;;;;;;4990475;28;20049;-62
2021/03/24 09:06:27;;;;;;;302.20;165.80;;;;;;;;;;4995843;28;20124;-62
2021/03/24 09:09:11;;;;;;;167.63;82.65;;;;;;;;;;5013538;28;20054;-62
2021/03/24 09:11:48;;;;;;;276.27;136.00;;;;;;;;;;4995842;28;20493;-62
2021/03/24 09:14:24;;;;;;;174.13;81.25;;;;;;;;;;5013746;28;20097;-62
2021/03/24 09:17:05;;;;;;;822.08;411.25;;;;;;;;;;5013263;28;20112;-62
2021/03/24 09:19:40;;;;;;;785.17;392.42;;;;;;;;;;4995689;28;20046;-62
2021/03/24 09:22:06;;;;;;;391.88;159.70;;;;;;;;;;4995869;28;20033;-62
2021/03/24 09:24:31;;;;;;;438.58;171.27;;;;;;;;;;5013318;28;20026;-62
2021/03/24 09:27:16;;;;;;;618.20;259.00;;;;;;;;;;5013567;28;20056;-62
2021/03/24 09:29:44;;;;;;;994.35;437.83;;;;;;;;;;5014144;28;20109;-62
2021/03/24 09:32:18;;;;;;;579.28;222.93;;;;;;;;;;5017437;28;20053;-62
2021/03/24 09:35:03;;;;;;;1479.47;595.97;;;;;;;;;;5017405;28;20088;-62
2021/03/24 09:37:30;;;;;;;523.95;188.75;;;;;;;;;;5017119;28;20018;-62
2021/03/24 09:39:59;;;;;;;323.23;105.18;;;;;;;;;;5017411;28;20014;-62
2021/03/24 09:42:27;;;;;;;85.80;36.33;;;;;;;;;;5032184;28;20033;-62
2021/03/24 09:44:52;;;;;;;393.45;122.68;;;;;;;;;;5016646;28;20022;-62
2021/03/24 09:47:38;;;;;;;986.63;408.65;;;;;;;;;;5017043;28;20060;-62
2021/03/24 09:50:22;;;;;;;145.25;57.85;;;;;;;;;;5006060;28;20062;-60
2021/03/24 09:52:51;;;;;;;111.13;41.80;;;;;;;;;;5017260;28;20116;-60
2021/03/24 09:55:23;;;;;;;29.40;13.88;;;;;;;;;;5016727;28;20030;-60
2021/03/24 09:58:08;;;;;;;131.40;45.70;;;;;;;;;;5015936;28;20113;-60
2021/03/24 10:00:35;;;;;;;134.00;41.05;;;;;;;;;;5016985;28;20041;-60
2021/03/24 10:03:10;;;;;;;132.80;52.55;;;;;;;;;;5016421;28;20068;-60
2021/03/24 10:05:43;;;;;;;496.40;153.88;;;;;;;;;;4998924;28;20573;-60
2021/03/24 10:08:16;;;;;;;519.95;143.52;;;;;;;;;;5017167;28;20048;-60
2021/03/24 10:10:43;;;;;;;776.90;245.18;;;;;;;;;;5016912;28;20030;-60
2021/03/24 10:13:28;;;;;;;857.47;275.00;;;;;;;;;;5016523;28;20018;-60
2021/03/24 10:16:08;;;;;;;913.67;311.35;;;;;;;;;;5016754;28;20497;-60
2021/03/24 10:18:44;;;;;;;583.43;168.90;;;;;;;;;;5016289;28;20073;-60
2021/03/24 10:21:21;;;;;;;1239.40;435.25;;;;;;;;;;5016579;28;20397;-59
2021/03/24 10:23:57;;;;;;;244.00;73.20;;;;;;;;;;5016898;28;20034;-60
2021/03/24 10:26:29;;;;;;;620.13;193.82;;;;;;;;;;5016591;28;20516;-61
2021/03/24 10:28:57;;;;;;;35.60;18.10;;;;;;;;;;5016777;28;20488;-60
2021/03/24 10:31:28;;;;;;;354.58;113.88;;;;;;;;;;5016409;28;20022;-61
2021/03/24 10:33:59;;;;;;;555.97;193.13;;;;;;;;;;5016344;28;20507;-61
2021/03/24 10:36:35;;;;;;;659.05;263.50;;;;;;;;;;5016188;28;20029;-61
2021/03/24 10:39:18;;;;;;;321.63;127.43;;;;;;;;;;5016423;28;20022;-61
2021/03/24 10:41:55;;;;;;;103.25;51.20;;;;;;;;;;5014800;28;20025;-61
2021/03/24 10:44:27;;;;;;;523.45;259.00;;;;;;;;;;5015031;28;20034;-61
2021/03/24 10:46:55;;;;;;;146.52;69.53;;;;;;;;;;5036072;28;20025;-61
2021/03/24 10:49:33;;;;;;;132.95;55.90;;;;;;;;;;5035925;28;20013;-60
2021/03/24 10:52:04;;;;;;;378.02;169.30;;;;;;;;;;5035647;28;20060;-61
2021/03/24 10:54:32;;;;;;;105.55;51.72;;;;;;;;;;5035884;28;20037;-60
2021/03/24 10:57:02;;;;;;;18.88;12.27;;;;;;;;;;5035362;28;20022;-60
2021/03/24 10:59:34;;;;;;;14.82;11.13;;;;;;;;;;5035318;28;20116;-60
2021/03/24 11:02:12;;;;;;;139.27;73.82;;;;;;;;;;5018081;28;20036;-61
2021/03/24 11:04:54;;;;;;;225.95;123.75;;;;;;;;;;5035322;28;20033;-61
2021/03/24 11:07:26;;;;;;;20.85;14.32;;;;;;;;;;5031450;28;20022;-61
2021/03/24 11:09:55;;;;;;;134.60;86.93;;;;;;;;;;5014209;28;20048;-61
2021/03/24 11:12:38;;;;;;;161.75;96.75;;;;;;;;;;5014924;28;20018;-61
2021/03/24 11:15:13;;;;;;;49.30;29.98;;;;;;;;;;5014067;28;20034;-61
2021/03/24 11:17:41;;;;;;;141.98;80.10;;;;;;;;;;5021847;28;20136;-61
2021/03/24 11:20:11;;;;;;;47.75;33.50;;;;;;;;;;5008340;28;20125;-61
2021/03/24 11:22:41;;;;;;;36.15;26.55;;;;;;;;;;5014628;28;20104;-61
2021/03/24 11:25:16;;;;;;;17.42;13.57;;;;;;;;;;5014845;28;20034;-61
2021/03/24 11:27:44;;;;;;;40.30;30.02;;;;;;;;;;5015370;28;20026;-61
2021/03/24 11:30:28;;;;;;;16.17;12.75;;;;;;;;;;5015090;28;20409;-60
2021/03/24 11:33:03;;;;;;;24.13;19.33;;;;;;;;;;5015670;28;20438;-61
2021/03/24 11:35:35;;;;;;;23.38;16.13;;;;;;;;;;5013851;28;20116;-61
2021/03/24 11:38:01;;;;;;;29.05;22.92;;;;;;;;;;4995052;28;20057;-61
2021/03/24 11:40:34;;;;;;;18.05;13.00;;;;;;;;;;5010628;28;20048;-61
2021/03/24 11:43:01;;;;;;;14.13;11.10;;;;;;;;;;5020090;28;20089;-60
2021/03/24 11:45:29;;;;;;;14.57;11.02;;;;;;;;;;5014068;28;20121;-61
2021/03/24 11:48:17;;;;;;;88.45;38.00;;;;;;;;;;5014799;28;20034;-60
2021/03/24 11:50:53;;;;;;;64.25;28.70;;;;;;;;;;4989529;28;20406;-61
2021/03/24 11:53:37;;;;;;;111.85;48.20;;;;;;;;;;5014583;28;20048;-60
2021/03/24 11:56:23;;;;;;;149.27;61.00;;;;;;;;;;5014644;28;20401;-61
2021/03/24 11:58:48;;;;;;;107.65;49.10;;;;;;;;;;5014148;28;20073;-60
2021/03/24 12:01:20;;;;;;;130.75;55.42;;;;;;;;;;5014486;28;20049;-61
2021/03/24 12:03:45;;;;;;;200.10;79.40;;;;;;;;;;5014631;28;20068;-60
2021/03/24 12:06:12;;;;;;;42.58;25.95;;;;;;;;;;5014155;28;20057;-61
2021/03/24 12:08:41;;;;;;;68.28;36.30;;;;;;;;;;4996814;28;20026;-61
2021/03/24 12:11:24;;;;;;;20.40;13.13;;;;;;;;;;5014346;28;20022;-61
2021/03/24 12:13:49;;;;;;;420.42;178.98;;;;;;;;;;5014562;28;20042;-61
2021/03/24 12:16:20;;;;;;;357.17;140.23;;;;;;;;;;5014557;28;20060;-61
2021/03/24 12:18:45;;;;;;;616.55;263.48;;;;;;;;;;5014039;28;20053;-61
2021/03/24 12:21:29;;;;;;;61.60;39.25;;;;;;;;;;5014105;28;20045;-60
2021/03/24 12:23:58;;;;;;;208.82;70.78;;;;;;;;;;4996407;28;20060;-61
2021/03/24 12:26:31;;;;;;;717.80;288.02;;;;;;;;;;5014001;28;20092;-61
2021/03/24 12:29:26;;;;;;;690.53;275.80;;;;;;;;;;5014017;28;20490;-61
2021/03/24 12:31:59;;;;;;;271.55;89.15;;;;;;;;;;5000753;28;20038;-61
2021/03/24 12:34:26;;;;;;;459.00;153.65;;;;;;;;;;5013808;28;20113;-61
2021/03/24 12:36:53;;;;;;;467.17;148.82;;;;;;;;;;5029644;28;20026;-61
2021/03/24 12:39:29;;;;;;;57.92;25.55;;;;;;;;;;5029287;28;20084;-61
2021/03/24 12:41:54;;;;;;;183.43;52.92;;;;;;;;;;5014300;28;20410;-61
2021/03/24 12:44:28;;;;;;;19.80;13.32;;;;;;;;;;5013772;28;20025;-60
2021/03/24 12:46:56;;;;;;;46.47;20.15;;;;;;;;;;5013684;28;20080;-61
2021/03/24 12:49:33;;;;;;;17.17;11.07;;;;;;;;;;5013505;28;20010;-61
2021/03/24 12:52:10;;;;;;;25.63;13.30;;;;;;;;;;5014076;28;20022;-61
2021/03/24 12:54:37;;;;;;;17.33;10.93;;;;;;;;;;5012703;28;20026;-61
2021/03/24 12:57:28;;;;;;;67.43;31.90;;;;;;;;;;5013061;28;20017;-61
2021/03/24 13:00:12;;;;;;;986.90;331.75;;;;;;;;;;4986045;28;20426;-61
2021/03/24 13:02:43;;;;;;;276.38;79.35;;;;;;;;;;5013776;28;20034;-61
2021/03/24 13:05:27;;;;;;;35.15;18.80;;;;;;;;;;5012922;28;20030;-61
2021/03/24 13:08:07;;;;;;;653.88;192.00;;;;;;;;;;5009040;28;20374;-61
2021/03/24 13:10:39;;;;;;;1346.00;446.00;;;;;;;;;;5010844;28;20026;-61
2021/03/24 13:13:20;;;;;;;900.55;264.42;;;;;;;;;;5013738;28;20037;-61
2021/03/24 13:15:58;;;;;;;388.40;113.13;;;;;;;;;;4996190;28;20048;-61
2021/03/24 13:18:30;;;;;;;386.13;104.60;;;;;;;;;;5011742;28;20050;-60
2021/03/24 13:20:55;;;;;;;316.00;93.60;;;;;;;;;;5013359;28;20033;-60
2021/03/24 13:23:33;;;;;;;608.85;199.98;;;;;;;;;;5013242;28;20014;-64
2021/03/24 13:26:02;;;;;;;715.85;202.82;;;;;;;;;;5013493;28;20458;-60
2021/03/24 13:28:33;;;;;;;656.40;209.27;;;;;;;;;;5013632;28;20022;-61
2021/03/24 13:31:02;;;;;;;1416.20;486.02;;;;;;;;;;5013397;28;20060;-61
2021/03/24 13:33:28;;;;;;;938.58;282.95;;;;;;;;;;5013298;28;20018;-61
2021/03/24 13:35:56;;;;;;;530.22;160.25;;;;;;;;;;5013103;28;20506;-61
2021/03/24 13:38:33;;;;;;;570.58;171.27;;;;;;;;;;5013257;28;20052;-61
2021/03/24 13:41:00;;;;;;;943.22;325.90;;;;;;;;;;5012965;28;20030;-61
2021/03/24 13:43:48;;;;;;;1153.32;384.73;;;;;;;;;;4996935;28;20081;-60
2021/03/24 13:46:20;;;;;;;82.13;30.40;;;;;;;;;;4976464;28;20046;-60
2021/03/24 13:48:51;;;;;;;344.92;111.05;;;;;;;;;;5012546;28;20026;-61
2021/03/24 13:51:16;;;;;;;20.25;13.98;;;;;;;;;;5013033;28;20419;-60
2021/03/24 13:53:55;;;;;;;335.63;101.10;;;;;;;;;;5011814;28;20093;-60
2021/03/24 13:56:20;;;;;;;36.60;21.42;;;;;;;;;;4996047;28;20038;-61
2021/03/24 13:59:04;;;;;;;42.33;21.70;;;;;;;;;;5010529;28;20022;-61
2021/03/24 14:01:48;;;;;;;1560.57;561.10;;;;;;;;;;5008767;28;20041;-61
2021/03/24 14:04:14;;;;;;;541.40;161.40;;;;;;;;;;5012868;28;20529;-61
2021/03/24 14:06:51;;;;;;;185.93;63.90;;;;;;;;;;5011665;28;20065;-61
2021/03/24 14:09:25;;;;;;;275.58;75.85;;;;;;;;;;5012552;28;20030;-61
2021/03/24 14:12:03;;;;;;;57.28;21.23;;;;;;;;;;5011720;28;20509;-60
2021/03/24 14:14:47;;;;;;;396.27;119.30;;;;;;;;;;5028022;28;20022;-61
2021/03/24 14:17:22;;;;;;;42.10;20.48;;;;;;;;;;5013885;28;20077;-61
2021/03/24 14:19:53;;;;;;;19.33;11.95;;;;;;;;;;5016594;28;20029;-61
2021/03/24 14:22:29;;;;;;;55.97;23.65;;;;;;;;;;5016361;28;20052;-61
2021/03/24 14:25:05;;;;;;;547.50;200.52;;;;;;;;;;5016213;28;20457;-61
2021/03/24 14:27:43;;;;;;;305.13;109.50;;;;;;;;;;5031757;28;20030;-61
2021/03/24 14:30:12;;;;;;;424.60;151.80;;;;;;;;;;5016773;28;20121;-61
2021/03/24 14:32:49;;;;;;;44.00;23.92;;;;;;;;;;5016450;28;20100;-61
2021/03/24 14:35:33;;;;;;;38.40;18.52;;;;;;;;;;5016670;28;20037;-61
2021/03/24 14:38:05;;;;;;;379.85;170.40;;;;;;;;;;5016262;28;20117;-61
2021/03/24 14:40:31;;;;;;;255.27;98.35;;;;;;;;;;5016113;28;20133;-61
2021/03/24 14:43:16;;;;;;;89.25;36.25;;;;;;;;;;5016404;28;20020;-61
2021/03/24 14:45:41;;;;;;;22.63;14.20;;;;;;;;;;5015982;28;20026;-61